sensor_id;sensor_type;location;lat;lon;timestamp;pressure;altitude;pressure_sealevel;temperature;humidity
40285;BME280;25997;50.214;19.354;2023-04-23T00:00:49;97436.91;;;10.06;31.49
40285;BME280;25997;50.214;19.354;2023-04-23T00:03:56;97444.03;;;10.13;31.70
40285;BME280;25997;50.214;19.354;2023-04-23T00:06:59;97442.25;;;10.12;31.54
40285;BME280;25997;50.214;19.354;2023-04-23T00:10:02;97443.09;;;10.10;31.61
40285;BME280;25997;50.214;19.354;2023-04-23T00:13:05;97444.81;;;10.08;31.77
40285;BME280;25997;50.214;19.354;2023-04-23T00:16:09;97451.94;;;10.15;31.76
40285;BME280;25997;50.214;19.354;2023-04-23T00:19:13;97455.88;;;9.94;32.28
40285;BME280;25997;50.214;19.354;2023-04-23T00:22:15;97454.63;;;9.76;32.35
40285;BME280;25997;50.214;19.354;2023-04-23T00:25:20;97453.25;;;9.93;31.98
40285;BME280;25997;50.214;19.354;2023-04-23T00:28:22;97458.81;;;10.08;32.18
40285;BME280;25997;50.214;19.354;2023-04-23T00:31:25;97451.66;;;10.02;32.34
40285;BME280;25997;50.214;19.354;2023-04-23T00:34:29;97452.44;;;9.97;32.46
40285;BME280;25997;50.214;19.354;2023-04-23T00:37:32;97460.88;;;9.82;33.22
40285;BME280;25997;50.214;19.354;2023-04-23T00:40:35;97450.09;;;9.67;33.23
40285;BME280;25997;50.214;19.354;2023-04-23T00:43:37;97445.66;;;9.63;33.08
40285;BME280;25997;50.214;19.354;2023-04-23T00:46:40;97446.56;;;9.64;32.96
40285;BME280;25997;50.214;19.354;2023-04-23T00:49:44;97441.41;;;9.68;33.13
40285;BME280;25997;50.214;19.354;2023-04-23T00:52:47;97442.34;;;9.73;32.75
40285;BME280;25997;50.214;19.354;2023-04-23T00:55:49;97447.75;;;9.81;32.66
40285;BME280;25997;50.214;19.354;2023-04-23T00:58:52;97439.97;;;9.85;32.58
40285;BME280;25997;50.214;19.354;2023-04-23T01:01:56;97435.63;;;9.86;32.59
40285;BME280;25997;50.214;19.354;2023-04-23T01:05:00;97440.09;;;9.91;32.90
40285;BME280;25997;50.214;19.354;2023-04-23T01:08:05;97442.59;;;9.85;33.08
40285;BME280;25997;50.214;19.354;2023-04-23T01:11:07;97441.41;;;9.70;33.38
40285;BME280;25997;50.214;19.354;2023-04-23T01:14:10;97437.69;;;9.57;33.49
40285;BME280;25997;50.214;19.354;2023-04-23T01:17:13;97440.03;;;9.45;33.56
40285;BME280;25997;50.214;19.354;2023-04-23T01:20:17;97446.91;;;9.40;33.80
40285;BME280;25997;50.214;19.354;2023-04-23T01:23:21;97448.69;;;9.40;33.89
40285;BME280;25997;50.214;19.354;2023-04-23T01:26:24;97442.66;;;9.44;33.77
40285;BME280;25997;50.214;19.354;2023-04-23T01:29:27;97448.03;;;9.51;33.64
40285;BME280;25997;50.214;19.354;2023-04-23T01:32:30;97439.44;;;9.58;33.66
40285;BME280;25997;50.214;19.354;2023-04-23T01:35:34;97446.56;;;9.64;33.53
40285;BME280;25997;50.214;19.354;2023-04-23T01:38:38;97444.81;;;9.64;33.63
40285;BME280;25997;50.214;19.354;2023-04-23T01:41:41;97447.38;;;9.63;33.67
40285;BME280;25997;50.214;19.354;2023-04-23T01:44:43;97449.19;;;9.64;33.67
40285;BME280;25997;50.214;19.354;2023-04-23T01:47:46;97439.53;;;9.63;34.06
40285;BME280;25997;50.214;19.354;2023-04-23T01:50:49;97443.88;;;9.62;34.07
40285;BME280;25997;50.214;19.354;2023-04-23T01:53:53;97442.06;;;9.58;34.29
40285;BME280;25997;50.214;19.354;2023-04-23T01:56:56;97438.44;;;9.52;34.12
40285;BME280;25997;50.214;19.354;2023-04-23T02:00:02;97437.44;;;9.47;34.28
40285;BME280;25997;50.214;19.354;2023-04-23T02:03:12;97442.69;;;9.47;34.08
40285;BME280;25997;50.214;19.354;2023-04-23T02:06:15;97440.13;;;9.50;34.20
40285;BME280;25997;50.214;19.354;2023-04-23T02:09:19;97440.16;;;9.51;34.40
40285;BME280;25997;50.214;19.354;2023-04-23T02:12:21;97437.53;;;9.51;34.37
40285;BME280;25997;50.214;19.354;2023-04-23T02:15:24;97441.06;;;9.52;34.37
40285;BME280;25997;50.214;19.354;2023-04-23T02:18:27;97439.31;;;9.51;34.30
40285;BME280;25997;50.214;19.354;2023-04-23T02:21:30;97434.06;;;9.51;34.40
40285;BME280;25997;50.214;19.354;2023-04-23T02:24:34;97431.34;;;9.46;34.44
40285;BME280;25997;50.214;19.354;2023-04-23T02:27:36;97426.91;;;9.44;34.47
40285;BME280;25997;50.214;19.354;2023-04-23T02:30:39;97432.13;;;9.42;34.57
40285;BME280;25997;50.214;19.354;2023-04-23T02:33:45;97419.03;;;9.42;34.86
40285;BME280;25997;50.214;19.354;2023-04-23T02:36:48;97425.94;;;9.39;34.80
40285;BME280;25997;50.214;19.354;2023-04-23T02:39:52;97421.31;;;9.27;35.20
40285;BME280;25997;50.214;19.354;2023-04-23T02:42:54;97425.19;;;9.04;35.81
40285;BME280;25997;50.214;19.354;2023-04-23T02:45:57;97418.03;;;8.95;35.77
40285;BME280;25997;50.214;19.354;2023-04-23T02:49:00;97424.22;;;8.99;35.60
40285;BME280;25997;50.214;19.354;2023-04-23T02:52:03;97425.72;;;8.89;36.03
40285;BME280;25997;50.214;19.354;2023-04-23T02:55:08;97427.13;;;8.75;36.21
40285;BME280;25997;50.214;19.354;2023-04-23T02:58:10;97426.13;;;8.69;36.38
40285;BME280;25997;50.214;19.354;2023-04-23T03:01:15;97418.88;;;8.58;36.51
40285;BME280;25997;50.214;19.354;2023-04-23T03:04:18;97421.47;;;8.57;36.56
40285;BME280;25997;50.214;19.354;2023-04-23T03:07:23;97421.34;;;8.51;36.54
40285;BME280;25997;50.214;19.354;2023-04-23T03:10:27;97413.19;;;8.39;36.83
40285;BME280;25997;50.214;19.354;2023-04-23T03:13:30;97412.16;;;8.34;37.04
40285;BME280;25997;50.214;19.354;2023-04-23T03:16:32;97414.56;;;8.25;37.62
40285;BME280;25997;50.214;19.354;2023-04-23T03:19:35;97409.09;;;8.16;37.66
40285;BME280;25997;50.214;19.354;2023-04-23T03:22:37;97415.16;;;8.13;37.67
40285;BME280;25997;50.214;19.354;2023-04-23T03:25:42;97412.38;;;8.07;37.88
40285;BME280;25997;50.214;19.354;2023-04-23T03:28:44;97413.94;;;8.01;38.11
40285;BME280;25997;50.214;19.354;2023-04-23T03:31:47;97410.38;;;7.97;38.04
40285;BME280;25997;50.214;19.354;2023-04-23T03:34:50;97413.72;;;7.92;38.07
40285;BME280;25997;50.214;19.354;2023-04-23T03:37:53;97413.66;;;7.89;38.29
40285;BME280;25997;50.214;19.354;2023-04-23T03:40:58;97407.50;;;7.87;38.50
40285;BME280;25997;50.214;19.354;2023-04-23T03:44:01;97408.44;;;7.90;38.44
40285;BME280;25997;50.214;19.354;2023-04-23T03:47:15;97417.41;;;8.00;38.13
40285;BME280;25997;50.214;19.354;2023-04-23T03:50:19;97407.91;;;8.03;38.18
40285;BME280;25997;50.214;19.354;2023-04-23T03:53:33;97416.69;;;8.05;38.16
40285;BME280;25997;50.214;19.354;2023-04-23T03:57:11;97419.44;;;8.11;38.16
40285;BME280;25997;50.214;19.354;2023-04-23T04:00:37;97414.97;;;8.06;38.19
40285;BME280;25997;50.214;19.354;2023-04-23T04:03:39;97420.03;;;8.00;38.41
40285;BME280;25997;50.214;19.354;2023-04-23T04:06:42;97415.53;;;7.96;38.68
40285;BME280;25997;50.214;19.354;2023-04-23T04:09:44;97416.16;;;7.86;38.85
40285;BME280;25997;50.214;19.354;2023-04-23T04:12:50;97422.88;;;7.76;39.33
40285;BME280;25997;50.214;19.354;2023-04-23T04:15:53;97426.38;;;7.76;39.34
40285;BME280;25997;50.214;19.354;2023-04-23T04:18:55;97422.16;;;7.81;39.26
40285;BME280;25997;50.214;19.354;2023-04-23T04:21:58;97423.22;;;7.88;39.29
40285;BME280;25997;50.214;19.354;2023-04-23T04:25:02;97420.72;;;7.93;39.15
40285;BME280;25997;50.214;19.354;2023-04-23T04:28:07;97418.25;;;7.99;39.22
40285;BME280;25997;50.214;19.354;2023-04-23T04:31:12;97425.41;;;8.06;39.23
40285;BME280;25997;50.214;19.354;2023-04-23T04:34:15;97425.69;;;8.16;38.91
40285;BME280;25997;50.214;19.354;2023-04-23T04:37:18;97423.22;;;8.22;39.05
40285;BME280;25997;50.214;19.354;2023-04-23T04:40:21;97426.84;;;8.27;39.15
40285;BME280;25997;50.214;19.354;2023-04-23T04:43:25;97426.16;;;8.36;39.55
40285;BME280;25997;50.214;19.354;2023-04-23T04:46:27;97421.47;;;8.57;39.61
40285;BME280;25997;50.214;19.354;2023-04-23T04:49:31;97424.66;;;8.81;39.10
40285;BME280;25997;50.214;19.354;2023-04-23T04:52:34;97424.41;;;9.08;38.73
40285;BME280;25997;50.214;19.354;2023-04-23T04:55:37;97427.56;;;9.34;38.45
40285;BME280;25997;50.214;19.354;2023-04-23T04:58:41;97421.06;;;9.55;38.22
40285;BME280;25997;50.214;19.354;2023-04-23T05:01:43;97434.47;;;9.72;38.22
40285;BME280;25997;50.214;19.354;2023-04-23T05:04:46;97427.75;;;9.86;38.33
40285;BME280;25997;50.214;19.354;2023-04-23T05:07:49;97431.50;;;10.00;38.55
40285;BME280;25997;50.214;19.354;2023-04-23T05:10:51;97430.06;;;10.14;38.29
40285;BME280;25997;50.214;19.354;2023-04-23T05:13:56;97426.88;;;10.33;37.99
40285;BME280;25997;50.214;19.354;2023-04-23T05:16:58;97433.16;;;10.41;38.08
40285;BME280;25997;50.214;19.354;2023-04-23T05:20:01;97437.56;;;10.44;38.48
40285;BME280;25997;50.214;19.354;2023-04-23T05:23:03;97426.34;;;10.52;38.43
40285;BME280;25997;50.214;19.354;2023-04-23T05:26:06;97423.06;;;10.67;38.34
40285;BME280;25997;50.214;19.354;2023-04-23T05:29:10;97427.06;;;10.99;38.11
40285;BME280;25997;50.214;19.354;2023-04-23T05:32:17;97428.50;;;11.37;37.69
40285;BME280;25997;50.214;19.354;2023-04-23T05:35:20;97430.72;;;11.76;37.12
40285;BME280;25997;50.214;19.354;2023-04-23T05:38:22;97439.84;;;12.08;36.75
40285;BME280;25997;50.214;19.354;2023-04-23T05:41:25;97438.38;;;12.35;36.40
40285;BME280;25997;50.214;19.354;2023-04-23T05:44:28;97438.59;;;12.60;36.12
40285;BME280;25997;50.214;19.354;2023-04-23T05:47:31;97430.00;;;12.82;36.11
40285;BME280;25997;50.214;19.354;2023-04-23T05:50:33;97429.31;;;13.06;35.81
40285;BME280;25997;50.214;19.354;2023-04-23T05:53:36;97432.06;;;13.27;35.63
40285;BME280;25997;50.214;19.354;2023-04-23T05:56:38;97437.44;;;13.44;35.41
40285;BME280;25997;50.214;19.354;2023-04-23T05:59:42;97432.22;;;13.56;35.37
40285;BME280;25997;50.214;19.354;2023-04-23T06:02:44;97435.78;;;13.64;35.15
40285;BME280;25997;50.214;19.354;2023-04-23T06:05:47;97432.31;;;13.77;35.12
40285;BME280;25997;50.214;19.354;2023-04-23T06:08:50;97434.97;;;13.88;35.00
40285;BME280;25997;50.214;19.354;2023-04-23T06:11:52;97438.59;;;14.02;34.88
40285;BME280;25997;50.214;19.354;2023-04-23T06:14:56;97438.63;;;14.21;34.99
40285;BME280;25997;50.214;19.354;2023-04-23T06:17:58;97434.22;;;14.34;34.62
40285;BME280;25997;50.214;19.354;2023-04-23T06:21:01;97441.31;;;14.44;34.56
40285;BME280;25997;50.214;19.354;2023-04-23T06:24:05;97443.97;;;14.53;34.31
40285;BME280;25997;50.214;19.354;2023-04-23T06:27:08;97441.31;;;14.73;34.13
40285;BME280;25997;50.214;19.354;2023-04-23T06:30:17;97436.91;;;14.87;33.99
40285;BME280;25997;50.214;19.354;2023-04-23T06:33:20;97433.38;;;15.04;33.89
40285;BME280;25997;50.214;19.354;2023-04-23T06:36:22;97427.22;;;15.18;33.52
40285;BME280;25997;50.214;19.354;2023-04-23T06:39:25;97429.84;;;15.19;33.85
40285;BME280;25997;50.214;19.354;2023-04-23T06:42:27;97430.66;;;15.36;33.57
40285;BME280;25997;50.214;19.354;2023-04-23T06:45:51;97435.91;;;15.51;33.35
40285;BME280;25997;50.214;19.354;2023-04-23T06:48:54;97423.53;;;15.59;33.13
40285;BME280;25997;50.214;19.354;2023-04-23T06:51:56;97425.22;;;15.85;33.20
40285;BME280;25997;50.214;19.354;2023-04-23T06:54:59;97429.47;;;16.11;33.06
40285;BME280;25997;50.214;19.354;2023-04-23T06:58:01;97424.97;;;16.33;33.00
40285;BME280;25997;50.214;19.354;2023-04-23T07:01:05;97428.38;;;16.50;32.37
40285;BME280;25997;50.214;19.354;2023-04-23T07:04:09;97434.50;;;16.61;31.77
40285;BME280;25997;50.214;19.354;2023-04-23T07:07:12;97428.22;;;16.71;32.08
40285;BME280;25997;50.214;19.354;2023-04-23T07:10:14;97430.03;;;16.68;31.64
40285;BME280;25997;50.214;19.354;2023-04-23T07:13:17;97430.84;;;16.77;31.63
40285;BME280;25997;50.214;19.354;2023-04-23T07:16:21;97428.00;;;16.97;31.21
40285;BME280;25997;50.214;19.354;2023-04-23T07:19:24;97417.38;;;16.97;31.35
40285;BME280;25997;50.214;19.354;2023-04-23T07:22:27;97425.34;;;17.00;30.87
40285;BME280;25997;50.214;19.354;2023-04-23T07:25:29;97430.63;;;17.00;30.98
40285;BME280;25997;50.214;19.354;2023-04-23T07:28:32;97426.97;;;17.13;30.73
40285;BME280;25997;50.214;19.354;2023-04-23T07:31:36;97428.72;;;17.14;31.04
40285;BME280;25997;50.214;19.354;2023-04-23T07:34:41;97433.84;;;17.34;30.81
40285;BME280;25997;50.214;19.354;2023-04-23T07:37:43;97433.69;;;17.47;30.16
40285;BME280;25997;50.214;19.354;2023-04-23T07:40:46;97428.38;;;17.50;30.20
40285;BME280;25997;50.214;19.354;2023-04-23T07:43:49;97423.66;;;17.73;30.21
40285;BME280;25997;50.214;19.354;2023-04-23T07:46:53;97421.06;;;17.67;29.45
40285;BME280;25997;50.214;19.354;2023-04-23T07:49:55;97417.47;;;17.73;29.71
40285;BME280;25997;50.214;19.354;2023-04-23T07:52:58;97422.38;;;18.06;30.00
40285;BME280;25997;50.214;19.354;2023-04-23T07:56:00;97412.13;;;18.41;29.89
40285;BME280;25997;50.214;19.354;2023-04-23T07:59:03;97409.31;;;18.49;28.78
40285;BME280;25997;50.214;19.354;2023-04-23T08:02:07;97410.28;;;18.46;28.70
40285;BME280;25997;50.214;19.354;2023-04-23T08:05:10;97409.56;;;18.35;28.34
40285;BME280;25997;50.214;19.354;2023-04-23T08:08:12;97406.75;;;18.43;28.12
40285;BME280;25997;50.214;19.354;2023-04-23T08:11:15;97421.22;;;18.25;27.73
40285;BME280;25997;50.214;19.354;2023-04-23T08:14:17;97402.28;;;18.48;28.29
40285;BME280;25997;50.214;19.354;2023-04-23T08:17:21;97392.00;;;18.80;28.39
40285;BME280;25997;50.214;19.354;2023-04-23T08:20:24;97403.25;;;18.96;27.18
40285;BME280;25997;50.214;19.354;2023-04-23T08:23:26;97394.41;;;18.95;27.15
40285;BME280;25997;50.214;19.354;2023-04-23T08:26:29;97391.69;;;19.00;27.12
40285;BME280;25997;50.214;19.354;2023-04-23T08:29:31;97396.75;;;19.12;27.20
40285;BME280;25997;50.214;19.354;2023-04-23T08:32:37;97393.22;;;19.11;27.09
40285;BME280;25997;50.214;19.354;2023-04-23T08:35:40;97385.13;;;19.17;26.83
40285;BME280;25997;50.214;19.354;2023-04-23T08:38:42;97388.84;;;19.07;26.58
40285;BME280;25997;50.214;19.354;2023-04-23T08:41:48;97390.22;;;18.81;26.29
40285;BME280;25997;50.214;19.354;2023-04-23T08:44:55;97387.75;;;18.70;27.13
40285;BME280;25997;50.214;19.354;2023-04-23T08:48:00;97391.00;;;18.87;26.79
40285;BME280;25997;50.214;19.354;2023-04-23T08:51:03;97371.78;;;19.19;27.37
40285;BME280;25997;50.214;19.354;2023-04-23T08:54:08;97374.38;;;19.23;26.79
40285;BME280;25997;50.214;19.354;2023-04-23T08:57:16;97371.66;;;19.25;27.05
40285;BME280;25997;50.214;19.354;2023-04-23T09:00:20;97375.34;;;19.18;26.99
40285;BME280;25997;50.214;19.354;2023-04-23T09:03:28;97374.97;;;19.39;26.79
40285;BME280;25997;50.214;19.354;2023-04-23T09:06:30;97377.59;;;19.42;26.14
40285;BME280;25997;50.214;19.354;2023-04-23T09:09:34;97367.94;;;19.37;25.99
40285;BME280;25997;50.214;19.354;2023-04-23T09:12:38;97352.34;;;19.14;24.41
40285;BME280;25997;50.214;19.354;2023-04-23T09:15:42;97349.19;;;19.41;24.94
40285;BME280;25997;50.214;19.354;2023-04-23T09:18:46;97369.38;;;19.51;23.65
40285;BME280;25997;50.214;19.354;2023-04-23T09:21:49;97358.03;;;19.43;23.58
40285;BME280;25997;50.214;19.354;2023-04-23T09:24:53;97358.63;;;19.57;24.06
40285;BME280;25997;50.214;19.354;2023-04-23T09:27:57;97350.13;;;19.81;24.36
40285;BME280;25997;50.214;19.354;2023-04-23T09:31:00;97362.41;;;19.87;22.94
40285;BME280;25997;50.214;19.354;2023-04-23T09:34:06;97340.41;;;19.79;22.60
40285;BME280;25997;50.214;19.354;2023-04-23T09:37:08;97346.44;;;19.46;22.49
40285;BME280;25997;50.214;19.354;2023-04-23T09:40:13;97338.63;;;19.78;23.07
40285;BME280;25997;50.214;19.354;2023-04-23T09:43:15;97343.31;;;20.08;23.37
40285;BME280;25997;50.214;19.354;2023-04-23T09:46:18;97340.34;;;20.20;22.19
40285;BME280;25997;50.214;19.354;2023-04-23T09:49:22;97350.81;;;19.91;23.02
40285;BME280;25997;50.214;19.354;2023-04-23T09:52:24;97348.97;;;20.33;23.05
40285;BME280;25997;50.214;19.354;2023-04-23T09:55:28;97345.47;;;20.66;23.37
40285;BME280;25997;50.214;19.354;2023-04-23T09:58:35;97337.25;;;21.09;23.42
40285;BME280;25997;50.214;19.354;2023-04-23T10:01:44;97334.38;;;21.48;23.12
40285;BME280;25997;50.214;19.354;2023-04-23T10:04:50;97333.28;;;22.15;22.33
40285;BME280;25997;50.214;19.354;2023-04-23T10:07:55;97323.41;;;21.87;22.12
40285;BME280;25997;50.214;19.354;2023-04-23T10:11:01;97313.31;;;22.53;22.65
40285;BME280;25997;50.214;19.354;2023-04-23T10:14:04;97308.78;;;22.81;22.00
40285;BME280;25997;50.214;19.354;2023-04-23T10:17:08;97312.84;;;22.93;21.29
40285;BME280;25997;50.214;19.354;2023-04-23T10:20:12;97325.56;;;22.86;21.10
40285;BME280;25997;50.214;19.354;2023-04-23T10:23:15;97305.69;;;23.18;21.13
40285;BME280;25997;50.214;19.354;2023-04-23T10:26:19;97295.66;;;22.74;20.54
40285;BME280;25997;50.214;19.354;2023-04-23T10:29:26;97307.25;;;22.74;20.58
40285;BME280;25997;50.214;19.354;2023-04-23T10:32:30;97304.00;;;22.91;20.03
40285;BME280;25997;50.214;19.354;2023-04-23T10:35:36;97294.00;;;22.70;19.26
40285;BME280;25997;50.214;19.354;2023-04-23T10:38:39;97302.13;;;22.67;19.81
40285;BME280;25997;50.214;19.354;2023-04-23T10:41:42;97284.72;;;23.05;19.97
40285;BME280;25997;50.214;19.354;2023-04-23T10:44:45;97284.66;;;23.32;19.95
40285;BME280;25997;50.214;19.354;2023-04-23T10:47:47;97283.41;;;23.89;20.20
40285;BME280;25997;50.214;19.354;2023-04-23T10:50:58;97285.28;;;24.08;18.47
40285;BME280;25997;50.214;19.354;2023-04-23T10:54:02;97280.16;;;24.02;19.95
40285;BME280;25997;50.214;19.354;2023-04-23T10:57:05;97294.72;;;23.49;19.13
40285;BME280;25997;50.214;19.354;2023-04-23T11:00:09;97282.72;;;23.36;18.50
40285;BME280;25997;50.214;19.354;2023-04-23T11:03:35;97273.53;;;23.43;17.33
40285;BME280;25997;50.214;19.354;2023-04-23T11:06:54;97276.72;;;23.77;17.89
40285;BME280;25997;50.214;19.354;2023-04-23T11:09:59;97270.00;;;23.89;18.96
40285;BME280;25997;50.214;19.354;2023-04-23T11:13:22;97266.19;;;23.71;17.75
40285;BME280;25997;50.214;19.354;2023-04-23T11:16:26;97272.94;;;23.10;18.77
40285;BME280;25997;50.214;19.354;2023-04-23T11:19:28;97262.28;;;23.56;19.31
40285;BME280;25997;50.214;19.354;2023-04-23T11:22:35;97264.06;;;24.02;17.10
40285;BME280;25997;50.214;19.354;2023-04-23T11:25:41;97271.50;;;24.17;17.42
40285;BME280;25997;50.214;19.354;2023-04-23T11:28:46;97261.03;;;24.55;18.63
40285;BME280;25997;50.214;19.354;2023-04-23T11:31:52;97265.38;;;25.19;19.13
40285;BME280;25997;50.214;19.354;2023-04-23T11:34:55;97265.56;;;25.55;18.45
40285;BME280;25997;50.214;19.354;2023-04-23T11:38:07;97253.13;;;25.90;17.14
40285;BME280;25997;50.214;19.354;2023-04-23T11:41:10;97258.56;;;26.25;19.08
40285;BME280;25997;50.214;19.354;2023-04-23T11:44:13;97264.75;;;27.32;17.95
40285;BME280;25997;50.214;19.354;2023-04-23T11:47:17;97248.31;;;26.86;16.94
40285;BME280;25997;50.214;19.354;2023-04-23T11:50:20;97257.25;;;26.70;18.24
40285;BME280;25997;50.214;19.354;2023-04-23T11:53:24;97243.75;;;26.17;17.31
40285;BME280;25997;50.214;19.354;2023-04-23T11:56:31;97240.47;;;26.10;17.88
40285;BME280;25997;50.214;19.354;2023-04-23T11:59:35;97246.06;;;25.87;17.18
40285;BME280;25997;50.214;19.354;2023-04-23T12:02:37;97245.91;;;25.71;17.94
40285;BME280;25997;50.214;19.354;2023-04-23T12:05:41;97256.97;;;25.27;17.70
40285;BME280;25997;50.214;19.354;2023-04-23T12:08:46;97250.47;;;25.12;17.42
40285;BME280;25997;50.214;19.354;2023-04-23T12:11:49;97248.91;;;25.27;18.29
40285;BME280;25997;50.214;19.354;2023-04-23T12:15:02;97235.66;;;26.17;17.56
40285;BME280;25997;50.214;19.354;2023-04-23T12:18:08;97240.06;;;26.54;17.97
40285;BME280;25997;50.214;19.354;2023-04-23T12:21:12;97233.88;;;27.04;17.95
40285;BME280;25997;50.214;19.354;2023-04-23T12:24:16;97237.47;;;26.52;17.42
40285;BME280;25997;50.214;19.354;2023-04-23T12:27:19;97233.84;;;25.99;17.23
40285;BME280;25997;50.214;19.354;2023-04-23T12:30:27;97220.09;;;26.23;15.94
40285;BME280;25997;50.214;19.354;2023-04-23T12:33:30;97235.25;;;26.07;17.16
40285;BME280;25997;50.214;19.354;2023-04-23T12:36:34;97234.00;;;25.77;17.79
40285;BME280;25997;50.214;19.354;2023-04-23T12:39:39;97227.59;;;25.80;17.72
40285;BME280;25997;50.214;19.354;2023-04-23T12:42:42;97222.19;;;26.35;17.72
40285;BME280;25997;50.214;19.354;2023-04-23T12:45:44;97216.84;;;25.80;17.07
40285;BME280;25997;50.214;19.354;2023-04-23T12:48:47;97218.91;;;24.97;17.80
40285;BME280;25997;50.214;19.354;2023-04-23T12:51:50;97212.25;;;25.44;17.99
40285;BME280;25997;50.214;19.354;2023-04-23T12:54:54;97215.47;;;26.08;17.90
40285;BME280;25997;50.214;19.354;2023-04-23T12:57:59;97212.28;;;26.53;17.54
40285;BME280;25997;50.214;19.354;2023-04-23T13:01:02;97200.69;;;27.52;17.83
40285;BME280;25997;50.214;19.354;2023-04-23T13:04:04;97200.66;;;28.91;17.07
40285;BME280;25997;50.214;19.354;2023-04-23T13:07:06;97209.00;;;29.02;15.55
40285;BME280;25997;50.214;19.354;2023-04-23T13:10:11;97198.84;;;28.17;16.37
40285;BME280;25997;50.214;19.354;2023-04-23T13:13:13;97198.19;;;27.17;15.83
40285;BME280;25997;50.214;19.354;2023-04-23T13:16:16;97199.13;;;26.98;16.69
40285;BME280;25997;50.214;19.354;2023-04-23T13:19:19;97200.09;;;26.80;16.75
40285;BME280;25997;50.214;19.354;2023-04-23T13:22:22;97189.00;;;27.36;17.18
40285;BME280;25997;50.214;19.354;2023-04-23T13:25:30;97187.88;;;27.56;15.64
40285;BME280;25997;50.214;19.354;2023-04-23T13:28:33;97187.34;;;27.82;15.93
40285;BME280;25997;50.214;19.354;2023-04-23T13:31:35;97185.69;;;28.26;15.67
40285;BME280;25997;50.214;19.354;2023-04-23T13:34:38;97182.69;;;28.76;15.78
40285;BME280;25997;50.214;19.354;2023-04-23T13:37:41;97171.72;;;28.93;15.26
40285;BME280;25997;50.214;19.354;2023-04-23T13:40:45;97192.28;;;28.82;15.71
40285;BME280;25997;50.214;19.354;2023-04-23T13:43:47;97166.56;;;28.75;15.66
40285;BME280;25997;50.214;19.354;2023-04-23T13:46:50;97174.56;;;28.76;15.51
40285;BME280;25997;50.214;19.354;2023-04-23T13:49:52;97174.50;;;28.32;15.77
40285;BME280;25997;50.214;19.354;2023-04-23T13:52:55;97169.47;;;28.26;15.71
40285;BME280;25997;50.214;19.354;2023-04-23T13:55:59;97162.97;;;28.15;15.46
40285;BME280;25997;50.214;19.354;2023-04-23T13:59:02;97154.44;;;28.22;15.92
40285;BME280;25997;50.214;19.354;2023-04-23T14:02:04;97144.06;;;28.15;15.53
40285;BME280;25997;50.214;19.354;2023-04-23T14:05:08;97153.03;;;28.45;15.93
40285;BME280;25997;50.214;19.354;2023-04-23T14:08:11;97137.03;;;28.42;15.40
40285;BME280;25997;50.214;19.354;2023-04-23T14:11:15;97146.03;;;28.27;15.79
40285;BME280;25997;50.214;19.354;2023-04-23T14:14:20;97138.34;;;28.65;15.70
40285;BME280;25997;50.214;19.354;2023-04-23T14:17:23;97141.50;;;28.87;15.55
40285;BME280;25997;50.214;19.354;2023-04-23T14:20:26;97136.22;;;27.95;16.07
40285;BME280;25997;50.214;19.354;2023-04-23T14:23:48;97132.50;;;27.66;15.54
40285;BME280;25997;50.214;19.354;2023-04-23T14:26:54;97133.50;;;28.10;15.77
40285;BME280;25997;50.214;19.354;2023-04-23T14:30:01;97137.28;;;28.67;15.43
40285;BME280;25997;50.214;19.354;2023-04-23T14:33:07;97120.81;;;28.12;15.80
40285;BME280;25997;50.214;19.354;2023-04-23T14:36:09;97130.69;;;27.34;15.56
40285;BME280;25997;50.214;19.354;2023-04-23T14:39:12;97117.47;;;27.45;15.95
40285;BME280;25997;50.214;19.354;2023-04-23T14:42:16;97122.59;;;27.66;16.34
40285;BME280;25997;50.214;19.354;2023-04-23T14:45:19;97121.16;;;27.91;16.22
40285;BME280;25997;50.214;19.354;2023-04-23T14:48:24;97126.72;;;28.19;15.46
40285;BME280;25997;50.214;19.354;2023-04-23T14:51:28;97121.16;;;28.06;15.78
40285;BME280;25997;50.214;19.354;2023-04-23T14:54:31;97119.75;;;28.15;16.09
40285;BME280;25997;50.214;19.354;2023-04-23T14:57:37;97115.00;;;27.89;16.40
40285;BME280;25997;50.214;19.354;2023-04-23T15:00:40;97110.13;;;27.00;16.05
40285;BME280;25997;50.214;19.354;2023-04-23T15:03:42;97110.03;;;25.99;16.62
40285;BME280;25997;50.214;19.354;2023-04-23T15:06:45;97113.50;;;26.02;16.95
40285;BME280;25997;50.214;19.354;2023-04-23T15:09:47;97107.16;;;26.20;16.98
40285;BME280;25997;50.214;19.354;2023-04-23T15:13:01;97108.91;;;25.68;17.11
40285;BME280;25997;50.214;19.354;2023-04-23T15:16:08;97107.88;;;25.15;17.26
40285;BME280;25997;50.214;19.354;2023-04-23T15:19:19;97102.41;;;24.39;17.51
40285;BME280;25997;50.214;19.354;2023-04-23T15:22:21;97101.75;;;23.71;18.19
40285;BME280;25997;50.214;19.354;2023-04-23T15:25:24;97098.25;;;23.47;18.47
40285;BME280;25997;50.214;19.354;2023-04-23T15:28:28;97097.94;;;23.33;18.46
40285;BME280;25997;50.214;19.354;2023-04-23T15:31:30;97091.25;;;23.21;18.32
40285;BME280;25997;50.214;19.354;2023-04-23T15:34:33;97087.34;;;23.07;18.41
40285;BME280;25997;50.214;19.354;2023-04-23T15:37:35;97088.84;;;23.14;18.52
40285;BME280;25997;50.214;19.354;2023-04-23T15:40:37;97085.66;;;23.27;18.41
40285;BME280;25997;50.214;19.354;2023-04-23T15:43:43;97090.44;;;23.62;18.43
40285;BME280;25997;50.214;19.354;2023-04-23T15:46:47;97091.53;;;23.80;18.60
40285;BME280;25997;50.214;19.354;2023-04-23T15:49:49;97084.50;;;23.76;18.94
40285;BME280;25997;50.214;19.354;2023-04-23T15:52:52;97082.69;;;23.78;18.79
40285;BME280;25997;50.214;19.354;2023-04-23T15:55:54;97076.44;;;23.56;18.62
40285;BME280;25997;50.214;19.354;2023-04-23T15:58:58;97077.88;;;23.43;19.00
40285;BME280;25997;50.214;19.354;2023-04-23T16:02:01;97077.28;;;23.13;19.31
40285;BME280;25997;50.214;19.354;2023-04-23T16:05:04;97073.72;;;22.89;19.64